sensor_id;sensor_type;location;lat;lon;timestamp;P1;durP1;ratioP1;P2;durP2;ratioP2
15077;SDS011;7638;49.760;8.646;2023-07-08T00:01:54;8.10;;;4.77;;
15077;SDS011;7638;49.760;8.646;2023-07-08T00:04:20;8.00;;;5.83;;
15077;SDS011;7638;49.760;8.646;2023-07-08T00:06:47;8.37;;;5.37;;
15077;SDS011;7638;49.760;8.646;2023-07-08T00:09:13;8.77;;;4.77;;
15077;SDS011;7638;49.760;8.646;2023-07-08T00:11:38;7.50;;;4.80;;
15077;SDS011;7638;49.760;8.646;2023-07-08T00:14:04;12.43;;;5.30;;
15077;SDS011;7638;49.760;8.646;2023-07-08T00:16:30;7.63;;;5.20;;
15077;SDS011;7638;49.760;8.646;2023-07-08T00:18:56;6.97;;;5.60;;
15077;SDS011;7638;49.760;8.646;2023-07-08T00:21:22;7.13;;;4.50;;
15077;SDS011;7638;49.760;8.646;2023-07-08T00:23:49;9.13;;;5.33;;
15077;SDS011;7638;49.760;8.646;2023-07-08T00:26:20;9.23;;;5.33;;
15077;SDS011;7638;49.760;8.646;2023-07-08T00:28:47;7.80;;;5.30;;
15077;SDS011;7638;49.760;8.646;2023-07-08T00:31:13;8.30;;;4.87;;
15077;SDS011;7638;49.760;8.646;2023-07-08T00:33:39;8.83;;;5.10;;
15077;SDS011;7638;49.760;8.646;2023-07-08T00:36:10;10.47;;;5.47;;
15077;SDS011;7638;49.760;8.646;2023-07-08T00:38:36;6.90;;;5.10;;
15077;SDS011;7638;49.760;8.646;2023-07-08T00:43:38;7.33;;;5.20;;
15077;SDS011;7638;49.760;8.646;2023-07-08T00:46:11;7.50;;;5.37;;
15077;SDS011;7638;49.760;8.646;2023-07-08T00:48:38;8.73;;;4.90;;
15077;SDS011;7638;49.760;8.646;2023-07-08T00:51:07;9.17;;;5.30;;
15077;SDS011;7638;49.760;8.646;2023-07-08T00:53:36;8.43;;;5.13;;
15077;SDS011;7638;49.760;8.646;2023-07-08T00:56:04;8.93;;;5.23;;
15077;SDS011;7638;49.760;8.646;2023-07-08T00:58:37;7.40;;;5.33;;
15077;SDS011;7638;49.760;8.646;2023-07-08T01:01:05;6.93;;;4.83;;
15077;SDS011;7638;49.760;8.646;2023-07-08T01:03:33;6.43;;;4.60;;
15077;SDS011;7638;49.760;8.646;2023-07-08T01:06:00;9.73;;;5.20;;
15077;SDS011;7638;49.760;8.646;2023-07-08T01:08:27;10.07;;;5.83;;
15077;SDS011;7638;49.760;8.646;2023-07-08T01:10:55;9.13;;;5.70;;
15077;SDS011;7638;49.760;8.646;2023-07-08T01:13:23;7.93;;;5.13;;
15077;SDS011;7638;49.760;8.646;2023-07-08T01:15:49;9.60;;;6.23;;
15077;SDS011;7638;49.760;8.646;2023-07-08T01:18:16;6.80;;;4.67;;
15077;SDS011;7638;49.760;8.646;2023-07-08T01:20:45;11.07;;;5.63;;
15077;SDS011;7638;49.760;8.646;2023-07-08T01:23:12;9.47;;;6.30;;
15077;SDS011;7638;49.760;8.646;2023-07-08T01:25:39;8.33;;;4.77;;
15077;SDS011;7638;49.760;8.646;2023-07-08T01:28:07;6.50;;;5.27;;
15077;SDS011;7638;49.760;8.646;2023-07-08T01:30:33;8.57;;;5.00;;
15077;SDS011;7638;49.760;8.646;2023-07-08T01:33:00;6.63;;;5.00;;
15077;SDS011;7638;49.760;8.646;2023-07-08T01:35:27;7.50;;;4.93;;
15077;SDS011;7638;49.760;8.646;2023-07-08T01:37:54;7.03;;;4.73;;
15077;SDS011;7638;49.760;8.646;2023-07-08T01:40:27;7.03;;;5.00;;
15077;SDS011;7638;49.760;8.646;2023-07-08T01:42:53;10.37;;;5.43;;
15077;SDS011;7638;49.760;8.646;2023-07-08T01:45:20;7.53;;;4.97;;
15077;SDS011;7638;49.760;8.646;2023-07-08T01:47:48;6.57;;;4.90;;
15077;SDS011;7638;49.760;8.646;2023-07-08T01:50:15;7.60;;;5.50;;
15077;SDS011;7638;49.760;8.646;2023-07-08T01:52:42;8.97;;;5.10;;
15077;SDS011;7638;49.760;8.646;2023-07-08T01:55:08;7.77;;;4.33;;
15077;SDS011;7638;49.760;8.646;2023-07-08T01:57:35;8.77;;;4.90;;
15077;SDS011;7638;49.760;8.646;2023-07-08T02:00:01;6.50;;;4.83;;
15077;SDS011;7638;49.760;8.646;2023-07-08T02:02:27;7.60;;;4.63;;
15077;SDS011;7638;49.760;8.646;2023-07-08T02:04:53;7.93;;;4.90;;
15077;SDS011;7638;49.760;8.646;2023-07-08T02:07:19;8.10;;;4.87;;
15077;SDS011;7638;49.760;8.646;2023-07-08T02:09:45;7.77;;;5.27;;
15077;SDS011;7638;49.760;8.646;2023-07-08T02:12:11;7.70;;;4.97;;
15077;SDS011;7638;49.760;8.646;2023-07-08T02:14:37;7.33;;;4.40;;
15077;SDS011;7638;49.760;8.646;2023-07-08T02:17:03;7.63;;;4.90;;
15077;SDS011;7638;49.760;8.646;2023-07-08T02:19:30;7.40;;;4.70;;
15077;SDS011;7638;49.760;8.646;2023-07-08T02:21:56;6.77;;;4.57;;
15077;SDS011;7638;49.760;8.646;2023-07-08T02:24:22;8.20;;;4.20;;
15077;SDS011;7638;49.760;8.646;2023-07-08T02:26:49;6.90;;;4.33;;
15077;SDS011;7638;49.760;8.646;2023-07-08T02:29:15;7.73;;;4.73;;
15077;SDS011;7638;49.760;8.646;2023-07-08T02:31:41;7.30;;;4.30;;
15077;SDS011;7638;49.760;8.646;2023-07-08T02:34:07;7.20;;;5.30;;
15077;SDS011;7638;49.760;8.646;2023-07-08T02:36:33;8.07;;;4.80;;
15077;SDS011;7638;49.760;8.646;2023-07-08T02:38:59;7.23;;;4.97;;
15077;SDS011;7638;49.760;8.646;2023-07-08T02:41:25;7.33;;;4.93;;
15077;SDS011;7638;49.760;8.646;2023-07-08T02:43:51;8.77;;;5.47;;
15077;SDS011;7638;49.760;8.646;2023-07-08T02:46:17;7.80;;;4.60;;
15077;SDS011;7638;49.760;8.646;2023-07-08T02:48:43;9.43;;;4.63;;
15077;SDS011;7638;49.760;8.646;2023-07-08T02:51:09;8.23;;;4.90;;
15077;SDS011;7638;49.760;8.646;2023-07-08T02:53:35;7.77;;;4.67;;
15077;SDS011;7638;49.760;8.646;2023-07-08T02:56:01;6.13;;;4.53;;
15077;SDS011;7638;49.760;8.646;2023-07-08T02:58:27;7.70;;;4.70;;
15077;SDS011;7638;49.760;8.646;2023-07-08T03:00:54;9.73;;;4.37;;
15077;SDS011;7638;49.760;8.646;2023-07-08T03:03:20;6.67;;;4.27;;
15077;SDS011;7638;49.760;8.646;2023-07-08T03:06:02;5.70;;;4.50;;
15077;SDS011;7638;49.760;8.646;2023-07-08T03:08:28;5.87;;;4.20;;
15077;SDS011;7638;49.760;8.646;2023-07-08T03:10:56;15.50;;;4.27;;
15077;SDS011;7638;49.760;8.646;2023-07-08T03:13:22;7.50;;;4.60;;
15077;SDS011;7638;49.760;8.646;2023-07-08T03:15:49;8.43;;;4.17;;
15077;SDS011;7638;49.760;8.646;2023-07-08T03:18:15;5.13;;;4.13;;
15077;SDS011;7638;49.760;8.646;2023-07-08T03:20:41;6.90;;;5.10;;
15077;SDS011;7638;49.760;8.646;2023-07-08T03:23:10;7.93;;;4.83;;
15077;SDS011;7638;49.760;8.646;2023-07-08T03:25:36;7.50;;;4.60;;
15077;SDS011;7638;49.760;8.646;2023-07-08T03:28:03;6.73;;;5.10;;
15077;SDS011;7638;49.760;8.646;2023-07-08T03:30:31;7.40;;;5.03;;
15077;SDS011;7638;49.760;8.646;2023-07-08T03:32:57;7.50;;;4.60;;
15077;SDS011;7638;49.760;8.646;2023-07-08T03:35:23;11.40;;;5.17;;
15077;SDS011;7638;49.760;8.646;2023-07-08T03:37:50;6.50;;;4.37;;
15077;SDS011;7638;49.760;8.646;2023-07-08T03:40:16;8.57;;;4.93;;
15077;SDS011;7638;49.760;8.646;2023-07-08T03:42:42;6.00;;;4.37;;
15077;SDS011;7638;49.760;8.646;2023-07-08T03:45:08;8.40;;;4.60;;
15077;SDS011;7638;49.760;8.646;2023-07-08T03:47:34;6.53;;;4.77;;
15077;SDS011;7638;49.760;8.646;2023-07-08T03:50:00;7.37;;;4.33;;
15077;SDS011;7638;49.760;8.646;2023-07-08T03:52:26;9.00;;;4.13;;
15077;SDS011;7638;49.760;8.646;2023-07-08T03:54:52;6.60;;;4.30;;
15077;SDS011;7638;49.760;8.646;2023-07-08T03:57:18;6.40;;;4.07;;
15077;SDS011;7638;49.760;8.646;2023-07-08T03:59:44;8.37;;;4.57;;
15077;SDS011;7638;49.760;8.646;2023-07-08T04:02:10;7.43;;;4.47;;
15077;SDS011;7638;49.760;8.646;2023-07-08T04:04:36;8.63;;;5.00;;
15077;SDS011;7638;49.760;8.646;2023-07-08T04:07:05;6.20;;;4.50;;
15077;SDS011;7638;49.760;8.646;2023-07-08T04:09:32;7.00;;;3.80;;
15077;SDS011;7638;49.760;8.646;2023-07-08T04:11:58;7.17;;;4.10;;
15077;SDS011;7638;49.760;8.646;2023-07-08T04:14:24;5.63;;;4.13;;
15077;SDS011;7638;49.760;8.646;2023-07-08T04:16:55;5.33;;;3.83;;
15077;SDS011;7638;49.760;8.646;2023-07-08T04:19:23;12.33;;;4.57;;
15077;SDS011;7638;49.760;8.646;2023-07-08T04:21:49;9.20;;;5.07;;
15077;SDS011;7638;49.760;8.646;2023-07-08T04:24:15;6.80;;;4.50;;
15077;SDS011;7638;49.760;8.646;2023-07-08T04:26:41;8.17;;;4.63;;
15077;SDS011;7638;49.760;8.646;2023-07-08T04:29:15;7.17;;;4.50;;
15077;SDS011;7638;49.760;8.646;2023-07-08T04:31:41;5.57;;;3.90;;
15077;SDS011;7638;49.760;8.646;2023-07-08T04:34:08;7.07;;;4.70;;
15077;SDS011;7638;49.760;8.646;2023-07-08T04:36:34;5.23;;;3.77;;
15077;SDS011;7638;49.760;8.646;2023-07-08T04:39:01;7.17;;;4.50;;
15077;SDS011;7638;49.760;8.646;2023-07-08T04:41:27;5.70;;;4.10;;
15077;SDS011;7638;49.760;8.646;2023-07-08T04:43:53;6.40;;;4.53;;
15077;SDS011;7638;49.760;8.646;2023-07-08T04:46:32;7.87;;;5.20;;
15077;SDS011;7638;49.760;8.646;2023-07-08T04:49:00;7.23;;;4.10;;
15077;SDS011;7638;49.760;8.646;2023-07-08T04:51:26;7.60;;;4.97;;
15077;SDS011;7638;49.760;8.646;2023-07-08T04:53:52;7.00;;;4.10;;
15077;SDS011;7638;49.760;8.646;2023-07-08T04:56:18;6.43;;;4.13;;
15077;SDS011;7638;49.760;8.646;2023-07-08T04:58:44;10.20;;;4.50;;
15077;SDS011;7638;49.760;8.646;2023-07-08T05:01:10;5.87;;;4.47;;
15077;SDS011;7638;49.760;8.646;2023-07-08T05:03:36;5.60;;;4.63;;
15077;SDS011;7638;49.760;8.646;2023-07-08T05:06:02;7.70;;;3.93;;
15077;SDS011;7638;49.760;8.646;2023-07-08T05:08:28;6.37;;;4.13;;
15077;SDS011;7638;49.760;8.646;2023-07-08T05:10:55;5.97;;;4.10;;
15077;SDS011;7638;49.760;8.646;2023-07-08T05:13:21;6.30;;;4.67;;
15077;SDS011;7638;49.760;8.646;2023-07-08T05:15:47;6.13;;;3.93;;
15077;SDS011;7638;49.760;8.646;2023-07-08T05:18:13;7.87;;;4.47;;
15077;SDS011;7638;49.760;8.646;2023-07-08T05:20:39;10.27;;;4.53;;
15077;SDS011;7638;49.760;8.646;2023-07-08T05:23:05;5.43;;;4.03;;
15077;SDS011;7638;49.760;8.646;2023-07-08T05:25:32;7.33;;;4.63;;
15077;SDS011;7638;49.760;8.646;2023-07-08T05:27:58;12.60;;;5.30;;
15077;SDS011;7638;49.760;8.646;2023-07-08T05:30:24;12.03;;;4.37;;
15077;SDS011;7638;49.760;8.646;2023-07-08T05:32:50;7.33;;;4.20;;
15077;SDS011;7638;49.760;8.646;2023-07-08T05:35:16;7.07;;;4.90;;
15077;SDS011;7638;49.760;8.646;2023-07-08T05:37:42;6.67;;;4.80;;
15077;SDS011;7638;49.760;8.646;2023-07-08T05:40:11;8.87;;;5.47;;
15077;SDS011;7638;49.760;8.646;2023-07-08T05:42:37;10.20;;;5.80;;
15077;SDS011;7638;49.760;8.646;2023-07-08T05:45:04;7.80;;;5.07;;
15077;SDS011;7638;49.760;8.646;2023-07-08T05:47:35;8.73;;;5.77;;
15077;SDS011;7638;49.760;8.646;2023-07-08T05:50:01;8.50;;;5.30;;
15077;SDS011;7638;49.760;8.646;2023-07-08T05:52:27;8.87;;;5.63;;
15077;SDS011;7638;49.760;8.646;2023-07-08T05:54:53;9.13;;;5.77;;
15077;SDS011;7638;49.760;8.646;2023-07-08T05:57:20;9.90;;;6.67;;
15077;SDS011;7638;49.760;8.646;2023-07-08T05:59:46;9.07;;;6.23;;
15077;SDS011;7638;49.760;8.646;2023-07-08T06:02:12;9.50;;;6.23;;
15077;SDS011;7638;49.760;8.646;2023-07-08T06:04:39;9.47;;;6.00;;
15077;SDS011;7638;49.760;8.646;2023-07-08T06:07:05;12.37;;;6.00;;
15077;SDS011;7638;49.760;8.646;2023-07-08T06:09:31;9.47;;;6.63;;
15077;SDS011;7638;49.760;8.646;2023-07-08T06:11:57;9.57;;;6.27;;
15077;SDS011;7638;49.760;8.646;2023-07-08T06:14:23;7.80;;;5.70;;
15077;SDS011;7638;49.760;8.646;2023-07-08T06:16:49;10.40;;;6.23;;
15077;SDS011;7638;49.760;8.646;2023-07-08T06:19:15;7.87;;;5.00;;
15077;SDS011;7638;49.760;8.646;2023-07-08T06:21:42;12.60;;;6.53;;
15077;SDS011;7638;49.760;8.646;2023-07-08T06:24:08;9.73;;;6.23;;
15077;SDS011;7638;49.760;8.646;2023-07-08T06:26:34;14.17;;;6.83;;
15077;SDS011;7638;49.760;8.646;2023-07-08T06:29:00;9.40;;;6.40;;
15077;SDS011;7638;49.760;8.646;2023-07-08T06:31:27;16.80;;;6.13;;
15077;SDS011;7638;49.760;8.646;2023-07-08T06:33:53;11.50;;;6.43;;
15077;SDS011;7638;49.760;8.646;2023-07-08T06:36:19;6.77;;;4.83;;
15077;SDS011;7638;49.760;8.646;2023-07-08T06:38:45;6.87;;;5.30;;
15077;SDS011;7638;49.760;8.646;2023-07-08T06:41:11;8.97;;;5.37;;
15077;SDS011;7638;49.760;8.646;2023-07-08T06:43:37;9.70;;;4.90;;
15077;SDS011;7638;49.760;8.646;2023-07-08T06:46:03;6.67;;;4.63;;
15077;SDS011;7638;49.760;8.646;2023-07-08T06:48:31;8.77;;;5.17;;
15077;SDS011;7638;49.760;8.646;2023-07-08T06:50:57;8.53;;;4.90;;
15077;SDS011;7638;49.760;8.646;2023-07-08T06:53:24;6.83;;;4.60;;
15077;SDS011;7638;49.760;8.646;2023-07-08T06:55:49;7.00;;;3.50;;
15077;SDS011;7638;49.760;8.646;2023-07-08T06:58:16;6.17;;;4.63;;
15077;SDS011;7638;49.760;8.646;2023-07-08T07:00:42;8.30;;;4.53;;
15077;SDS011;7638;49.760;8.646;2023-07-08T07:03:08;7.33;;;4.30;;
15077;SDS011;7638;49.760;8.646;2023-07-08T07:05:34;7.57;;;4.40;;
15077;SDS011;7638;49.760;8.646;2023-07-08T07:08:00;10.30;;;5.03;;
15077;SDS011;7638;49.760;8.646;2023-07-08T07:10:26;5.70;;;4.50;;
15077;SDS011;7638;49.760;8.646;2023-07-08T07:12:52;6.23;;;4.07;;
15077;SDS011;7638;49.760;8.646;2023-07-08T07:15:18;8.77;;;5.20;;
15077;SDS011;7638;49.760;8.646;2023-07-08T07:17:44;7.63;;;5.43;;
15077;SDS011;7638;49.760;8.646;2023-07-08T07:20:10;7.73;;;5.10;;
15077;SDS011;7638;49.760;8.646;2023-07-08T07:22:36;8.13;;;5.03;;
15077;SDS011;7638;49.760;8.646;2023-07-08T07:25:02;6.87;;;4.57;;
15077;SDS011;7638;49.760;8.646;2023-07-08T07:27:28;10.30;;;4.80;;
15077;SDS011;7638;49.760;8.646;2023-07-08T07:29:54;15.23;;;7.07;;
15077;SDS011;7638;49.760;8.646;2023-07-08T07:32:22;12.83;;;6.73;;
15077;SDS011;7638;49.760;8.646;2023-07-08T07:34:49;10.87;;;5.30;;
15077;SDS011;7638;49.760;8.646;2023-07-08T07:37:16;9.10;;;5.00;;
15077;SDS011;7638;49.760;8.646;2023-07-08T07:39:42;8.93;;;4.70;;
15077;SDS011;7638;49.760;8.646;2023-07-08T07:42:08;12.93;;;6.13;;
15077;SDS011;7638;49.760;8.646;2023-07-08T07:44:35;10.17;;;5.53;;
15077;SDS011;7638;49.760;8.646;2023-07-08T07:47:01;10.27;;;4.87;;
15077;SDS011;7638;49.760;8.646;2023-07-08T07:49:28;7.87;;;5.47;;
15077;SDS011;7638;49.760;8.646;2023-07-08T07:51:54;8.40;;;5.70;;
15077;SDS011;7638;49.760;8.646;2023-07-08T07:54:20;14.13;;;6.77;;
15077;SDS011;7638;49.760;8.646;2023-07-08T07:56:46;10.37;;;5.93;;
15077;SDS011;7638;49.760;8.646;2023-07-08T07:59:12;15.77;;;6.30;;
15077;SDS011;7638;49.760;8.646;2023-07-08T08:01:38;9.93;;;6.13;;
15077;SDS011;7638;49.760;8.646;2023-07-08T08:04:06;10.83;;;5.53;;
15077;SDS011;7638;49.760;8.646;2023-07-08T08:06:31;9.43;;;5.70;;
15077;SDS011;7638;49.760;8.646;2023-07-08T08:08:57;11.00;;;6.27;;
15077;SDS011;7638;49.760;8.646;2023-07-08T08:11:23;9.87;;;6.13;;
15077;SDS011;7638;49.760;8.646;2023-07-08T08:13:50;8.60;;;5.93;;
15077;SDS011;7638;49.760;8.646;2023-07-08T08:16:16;11.50;;;6.40;;
15077;SDS011;7638;49.760;8.646;2023-07-08T08:18:42;9.63;;;6.17;;
15077;SDS011;7638;49.760;8.646;2023-07-08T08:21:08;10.60;;;5.67;;
15077;SDS011;7638;49.760;8.646;2023-07-08T08:23:34;9.60;;;6.40;;
15077;SDS011;7638;49.760;8.646;2023-07-08T08:26:00;8.77;;;6.10;;
15077;SDS011;7638;49.760;8.646;2023-07-08T08:28:26;18.33;;;6.83;;
15077;SDS011;7638;49.760;8.646;2023-07-08T08:30:52;10.10;;;6.07;;
15077;SDS011;7638;49.760;8.646;2023-07-08T08:33:18;10.17;;;6.43;;
15077;SDS011;7638;49.760;8.646;2023-07-08T08:35:45;10.50;;;6.13;;
15077;SDS011;7638;49.760;8.646;2023-07-08T08:38:11;13.67;;;5.97;;
15077;SDS011;7638;49.760;8.646;2023-07-08T08:40:37;9.00;;;6.83;;
15077;SDS011;7638;49.760;8.646;2023-07-08T08:45:32;9.03;;;6.43;;
15077;SDS011;7638;49.760;8.646;2023-07-08T08:48:00;9.73;;;6.10;;
15077;SDS011;7638;49.760;8.646;2023-07-08T08:50:39;11.30;;;6.13;;
15077;SDS011;7638;49.760;8.646;2023-07-08T08:53:08;10.47;;;6.53;;
15077;SDS011;7638;49.760;8.646;2023-07-08T08:55:36;10.33;;;6.03;;
15077;SDS011;7638;49.760;8.646;2023-07-08T09:00:55;9.43;;;5.40;;
15077;SDS011;7638;49.760;8.646;2023-07-08T09:03:30;14.00;;;6.00;;
15077;SDS011;7638;49.760;8.646;2023-07-08T09:05:59;17.87;;;5.97;;
15077;SDS011;7638;49.760;8.646;2023-07-08T09:08:30;7.90;;;5.93;;
15077;SDS011;7638;49.760;8.646;2023-07-08T09:11:00;10.23;;;5.57;;
15077;SDS011;7638;49.760;8.646;2023-07-08T09:13:34;8.00;;;4.17;;
15077;SDS011;7638;49.760;8.646;2023-07-08T09:16:02;7.17;;;4.33;;
15077;SDS011;7638;49.760;8.646;2023-07-08T09:18:32;7.83;;;5.20;;
15077;SDS011;7638;49.760;8.646;2023-07-08T09:20:59;11.40;;;5.63;;
15077;SDS011;7638;49.760;8.646;2023-07-08T09:23:27;10.17;;;6.00;;
15077;SDS011;7638;49.760;8.646;2023-07-08T09:25:58;8.23;;;4.70;;
15077;SDS011;7638;49.760;8.646;2023-07-08T09:28:39;5.70;;;3.73;;
15077;SDS011;7638;49.760;8.646;2023-07-08T09:31:06;9.77;;;4.17;;
15077;SDS011;7638;49.760;8.646;2023-07-08T09:33:33;6.83;;;3.27;;
15077;SDS011;7638;49.760;8.646;2023-07-08T09:35:59;9.63;;;4.33;;
15077;SDS011;7638;49.760;8.646;2023-07-08T09:38:25;5.13;;;3.80;;
15077;SDS011;7638;49.760;8.646;2023-07-08T09:40:52;7.33;;;3.63;;
15077;SDS011;7638;49.760;8.646;2023-07-08T09:43:28;8.53;;;2.93;;
15077;SDS011;7638;49.760;8.646;2023-07-08T09:46:01;5.20;;;3.17;;
15077;SDS011;7638;49.760;8.646;2023-07-08T09:48:28;7.37;;;3.77;;
15077;SDS011;7638;49.760;8.646;2023-07-08T09:50:56;6.63;;;4.03;;
15077;SDS011;7638;49.760;8.646;2023-07-08T09:53:22;5.17;;;3.30;;
15077;SDS011;7638;49.760;8.646;2023-07-08T09:55:49;7.50;;;3.67;;
15077;SDS011;7638;49.760;8.646;2023-07-08T09:58:21;7.63;;;3.40;;
15077;SDS011;7638;49.760;8.646;2023-07-08T10:00:50;8.03;;;3.00;;
15077;SDS011;7638;49.760;8.646;2023-07-08T10:03:19;5.43;;;3.63;;
15077;SDS011;7638;49.760;8.646;2023-07-08T10:05:46;5.53;;;3.27;;
15077;SDS011;7638;49.760;8.646;2023-07-08T10:08:17;6.23;;;3.67;;
15077;SDS011;7638;49.760;8.646;2023-07-08T10:10:44;5.93;;;3.67;;
15077;SDS011;7638;49.760;8.646;2023-07-08T10:13:14;8.87;;;3.77;;
15077;SDS011;7638;49.760;8.646;2023-07-08T10:15:43;5.27;;;3.30;;
15077;SDS011;7638;49.760;8.646;2023-07-08T10:18:13;7.17;;;3.67;;
15077;SDS011;7638;49.760;8.646;2023-07-08T10:20:53;7.93;;;4.03;;
15077;SDS011;7638;49.760;8.646;2023-07-08T10:28:45;6.83;;;3.73;;
15077;SDS011;7638;49.760;8.646;2023-07-08T10:36:51;8.83;;;3.83;;
15077;SDS011;7638;49.760;8.646;2023-07-08T10:41:58;6.77;;;3.50;;
15077;SDS011;7638;49.760;8.646;2023-07-08T10:57:59;5.70;;;3.77;;
15077;SDS011;7638;49.760;8.646;2023-07-08T11:00:41;5.50;;;3.10;;
15077;SDS011;7638;49.760;8.646;2023-07-08T11:05:44;14.43;;;4.30;;
15077;SDS011;7638;49.760;8.646;2023-07-08T11:08:17;7.43;;;3.30;;
15077;SDS011;7638;49.760;8.646;2023-07-08T11:10:51;8.33;;;3.40;;
15077;SDS011;7638;49.760;8.646;2023-07-08T11:13:19;5.17;;;3.87;;
15077;SDS011;7638;49.760;8.646;2023-07-08T11:15:49;6.13;;;3.43;;
15077;SDS011;7638;49.760;8.646;2023-07-08T11:18:24;7.23;;;4.03;;
15077;SDS011;7638;49.760;8.646;2023-07-08T11:20:54;5.80;;;3.70;;
15077;SDS011;7638;49.760;8.646;2023-07-08T11:25:50;15.80;;;3.77;;
15077;SDS011;7638;49.760;8.646;2023-07-08T11:28:18;9.83;;;4.70;;
15077;SDS011;7638;49.760;8.646;2023-07-08T11:30:46;5.87;;;4.00;;
15077;SDS011;7638;49.760;8.646;2023-07-08T11:33:13;8.03;;;4.03;;
15077;SDS011;7638;49.760;8.646;2023-07-08T11:38:06;6.37;;;4.57;;
15077;SDS011;7638;49.760;8.646;2023-07-08T11:40:49;8.47;;;4.13;;
15077;SDS011;7638;49.760;8.646;2023-07-08T11:43:15;6.07;;;4.07;;
15077;SDS011;7638;49.760;8.646;2023-07-08T11:45:42;7.57;;;4.37;;
15077;SDS011;7638;49.760;8.646;2023-07-08T11:48:13;7.63;;;4.33;;
15077;SDS011;7638;49.760;8.646;2023-07-08T11:50:41;9.67;;;4.27;;
15077;SDS011;7638;49.760;8.646;2023-07-08T11:53:09;6.27;;;3.60;;
15077;SDS011;7638;49.760;8.646;2023-07-08T11:55:37;7.53;;;3.93;;
15077;SDS011;7638;49.760;8.646;2023-07-08T11:58:19;7.93;;;3.67;;
15077;SDS011;7638;49.760;8.646;2023-07-08T12:00:50;7.93;;;4.50;;
15077;SDS011;7638;49.760;8.646;2023-07-08T12:03:21;4.87;;;3.83;;
15077;SDS011;7638;49.760;8.646;2023-07-08T12:05:47;4.77;;;3.93;;
15077;SDS011;7638;49.760;8.646;2023-07-08T12:08:14;14.57;;;4.27;;
15077;SDS011;7638;49.760;8.646;2023-07-08T12:10:41;5.77;;;3.53;;
15077;SDS011;7638;49.760;8.646;2023-07-08T12:13:13;5.73;;;3.80;;
15077;SDS011;7638;49.760;8.646;2023-07-08T12:15:39;7.70;;;3.77;;
15077;SDS011;7638;49.760;8.646;2023-07-08T12:18:15;6.60;;;3.97;;
15077;SDS011;7638;49.760;8.646;2023-07-08T12:20:43;11.00;;;4.20;;
15077;SDS011;7638;49.760;8.646;2023-07-08T12:23:28;6.00;;;3.40;;
15077;SDS011;7638;49.760;8.646;2023-07-08T12:25:55;5.67;;;3.27;;
15077;SDS011;7638;49.760;8.646;2023-07-08T12:28:22;5.70;;;3.30;;
15077;SDS011;7638;49.760;8.646;2023-07-08T12:30:48;4.97;;;4.47;;
15077;SDS011;7638;49.760;8.646;2023-07-08T12:33:19;4.57;;;3.20;;
15077;SDS011;7638;49.760;8.646;2023-07-08T12:35:47;4.07;;;3.57;;
15077;SDS011;7638;49.760;8.646;2023-07-08T12:38:59;10.67;;;3.80;;
15077;SDS011;7638;49.760;8.646;2023-07-08T12:41:01;8.23;;;4.30;;
15077;SDS011;7638;49.760;8.646;2023-07-08T12:43:27;4.53;;;3.57;;
15077;SDS011;7638;49.760;8.646;2023-07-08T12:45:53;5.67;;;3.37;;
15077;SDS011;7638;49.760;8.646;2023-07-08T12:48:19;6.87;;;3.00;;
15077;SDS011;7638;49.760;8.646;2023-07-08T12:50:45;5.10;;;3.13;;
15077;SDS011;7638;49.760;8.646;2023-07-08T12:53:11;3.87;;;3.03;;
15077;SDS011;7638;49.760;8.646;2023-07-08T12:55:41;4.83;;;3.10;;
15077;SDS011;7638;49.760;8.646;2023-07-08T12:58:13;7.23;;;3.60;;
15077;SDS011;7638;49.760;8.646;2023-07-08T13:00:39;5.77;;;3.17;;
15077;SDS011;7638;49.760;8.646;2023-07-08T13:03:07;5.80;;;3.13;;
15077;SDS011;7638;49.760;8.646;2023-07-08T13:05:34;7.23;;;3.50;;
15077;SDS011;7638;49.760;8.646;2023-07-08T13:08:00;6.40;;;3.97;;
15077;SDS011;7638;49.760;8.646;2023-07-08T13:10:27;4.97;;;3.17;;
15077;SDS011;7638;49.760;8.646;2023-07-08T13:12:56;4.30;;;3.40;;
15077;SDS011;7638;49.760;8.646;2023-07-08T13:15:25;5.00;;;3.50;;
15077;SDS011;7638;49.760;8.646;2023-07-08T13:17:52;4.93;;;3.27;;
15077;SDS011;7638;49.760;8.646;2023-07-08T13:20:18;9.00;;;3.77;;
15077;SDS011;7638;49.760;8.646;2023-07-08T13:22:48;6.00;;;4.00;;
15077;SDS011;7638;49.760;8.646;2023-07-08T13:25:16;6.53;;;4.00;;
15077;SDS011;7638;49.760;8.646;2023-07-08T13:27:47;4.90;;;3.47;;
15077;SDS011;7638;49.760;8.646;2023-07-08T13:30:20;7.00;;;3.53;;
15077;SDS011;7638;49.760;8.646;2023-07-08T13:32:57;7.47;;;3.57;;
15077;SDS011;7638;49.760;8.646;2023-07-08T13:37:52;5.03;;;2.93;;
15077;SDS011;7638;49.760;8.646;2023-07-08T13:40:18;6.00;;;3.40;;
15077;SDS011;7638;49.760;8.646;2023-07-08T13:42:51;5.07;;;3.07;;
15077;SDS011;7638;49.760;8.646;2023-07-08T13:45:29;5.47;;;3.20;;
15077;SDS011;7638;49.760;8.646;2023-07-08T13:48:27;6.90;;;3.07;;
15077;SDS011;7638;49.760;8.646;2023-07-08T13:50:55;6.60;;;3.10;;
15077;SDS011;7638;49.760;8.646;2023-07-08T13:53:24;5.50;;;3.10;;
15077;SDS011;7638;49.760;8.646;2023-07-08T13:55:58;9.93;;;3.20;;
15077;SDS011;7638;49.760;8.646;2023-07-08T13:58:26;6.47;;;3.77;;
15077;SDS011;7638;49.760;8.646;2023-07-08T14:00:52;11.13;;;3.17;;
15077;SDS011;7638;49.760;8.646;2023-07-08T14:03:18;7.67;;;3.63;;
15077;SDS011;7638;49.760;8.646;2023-07-08T14:05:45;3.53;;;3.13;;
15077;SDS011;7638;49.760;8.646;2023-07-08T14:08:14;6.27;;;3.07;;
15077;SDS011;7638;49.760;8.646;2023-07-08T14:10:41;5.73;;;3.20;;
15077;SDS011;7638;49.760;8.646;2023-07-08T14:13:07;7.87;;;3.00;;
15077;SDS011;7638;49.760;8.646;2023-07-08T14:15:33;5.40;;;3.20;;
15077;SDS011;7638;49.760;8.646;2023-07-08T14:18:00;6.30;;;3.20;;
15077;SDS011;7638;49.760;8.646;2023-07-08T14:20:26;7.63;;;3.43;;
15077;SDS011;7638;49.760;8.646;2023-07-08T14:22:53;6.87;;;3.50;;
15077;SDS011;7638;49.760;8.646;2023-07-08T14:25:19;4.37;;;3.10;;
15077;SDS011;7638;49.760;8.646;2023-07-08T14:27:46;5.03;;;3.13;;
15077;SDS011;7638;49.760;8.646;2023-07-08T14:30:12;6.03;;;3.13;;
15077;SDS011;7638;49.760;8.646;2023-07-08T14:32:38;4.90;;;2.80;;
15077;SDS011;7638;49.760;8.646;2023-07-08T14:35:38;5.30;;;3.10;;
15077;SDS011;7638;49.760;8.646;2023-07-08T14:37:57;3.87;;;2.93;;
15077;SDS011;7638;49.760;8.646;2023-07-08T14:40:25;5.80;;;3.50;;
15077;SDS011;7638;49.760;8.646;2023-07-08T14:43:02;6.37;;;3.37;;
15077;SDS011;7638;49.760;8.646;2023-07-08T14:45:29;7.73;;;4.33;;
15077;SDS011;7638;49.760;8.646;2023-07-08T14:47:56;8.57;;;3.30;;
15077;SDS011;7638;49.760;8.646;2023-07-08T14:50:22;6.17;;;4.47;;
15077;SDS011;7638;49.760;8.646;2023-07-08T14:52:48;4.53;;;3.27;;
15077;SDS011;7638;49.760;8.646;2023-07-08T14:55:14;5.43;;;3.17;;
15077;SDS011;7638;49.760;8.646;2023-07-08T14:57:41;6.13;;;3.80;;
15077;SDS011;7638;49.760;8.646;2023-07-08T15:00:10;5.67;;;3.57;;
15077;SDS011;7638;49.760;8.646;2023-07-08T15:02:37;6.38;;;3.25;;
15077;SDS011;7638;49.760;8.646;2023-07-08T15:05:08;8.07;;;3.38;;
15077;SDS011;7638;49.760;8.646;2023-07-08T15:07:34;6.40;;;3.30;;
15077;SDS011;7638;49.760;8.646;2023-07-08T15:10:00;6.07;;;3.00;;
15077;SDS011;7638;49.760;8.646;2023-07-08T15:12:26;8.27;;;4.03;;
15077;SDS011;7638;49.760;8.646;2023-07-08T15:14:52;4.90;;;3.58;;
15077;SDS011;7638;49.760;8.646;2023-07-08T15:17:18;6.05;;;3.50;;
15077;SDS011;7638;49.760;8.646;2023-07-08T15:19:44;5.72;;;3.40;;
15077;SDS011;7638;49.760;8.646;2023-07-08T15:22:10;7.20;;;3.83;;
15077;SDS011;7638;49.760;8.646;2023-07-08T15:24:36;7.35;;;3.90;;
15077;SDS011;7638;49.760;8.646;2023-07-08T15:27:03;10.32;;;3.83;;
15077;SDS011;7638;49.760;8.646;2023-07-08T15:29:29;5.15;;;3.63;;
15077;SDS011;7638;49.760;8.646;2023-07-08T15:31:55;5.25;;;2.90;;
15077;SDS011;7638;49.760;8.646;2023-07-08T15:34:21;6.20;;;3.15;;
15077;SDS011;7638;49.760;8.646;2023-07-08T15:36:49;5.55;;;3.30;;
15077;SDS011;7638;49.760;8.646;2023-07-08T15:39:15;7.22;;;3.13;;
15077;SDS011;7638;49.760;8.646;2023-07-08T15:41:42;7.03;;;3.63;;
15077;SDS011;7638;49.760;8.646;2023-07-08T15:44:09;6.75;;;3.50;;
15077;SDS011;7638;49.760;8.646;2023-07-08T15:46:36;9.82;;;4.05;;
15077;SDS011;7638;49.760;8.646;2023-07-08T15:49:13;4.63;;;3.20;;